sensor_id;sensor_type;location;lat;lon;timestamp;pressure;altitude;pressure_sealevel;temperature;humidity
44453;BME280;30155;52.164;21.236;2023-01-28T00:01:05;101276.73;;;0.29;85.12
44453;BME280;30155;52.164;21.236;2023-01-28T00:06:05;101285.69;;;0.25;84.93
44453;BME280;30155;52.164;21.236;2023-01-28T00:11:00;101284.65;;;0.22;85.25
44453;BME280;30155;52.164;21.236;2023-01-28T00:16:02;101285.41;;;0.21;85.19
44453;BME280;30155;52.164;21.236;2023-01-28T00:20:57;101287.33;;;0.19;85.03
44453;BME280;30155;52.164;21.236;2023-01-28T00:25:50;101292.02;;;0.18;85.19
44453;BME280;30155;52.164;21.236;2023-01-28T00:30:43;101288.05;;;0.17;85.24
44453;BME280;30155;52.164;21.236;2023-01-28T00:35:36;101287.61;;;0.16;84.90
44453;BME280;30155;52.164;21.236;2023-01-28T00:40:29;101287.83;;;0.14;85.47
44453;BME280;30155;52.164;21.236;2023-01-28T00:45:23;101287.56;;;0.13;85.18
44453;BME280;30155;52.164;21.236;2023-01-28T00:50:15;101286.13;;;0.11;85.32
44453;BME280;30155;52.164;21.236;2023-01-28T00:55:08;101288.10;;;0.13;85.58
44453;BME280;30155;52.164;21.236;2023-01-28T01:00:04;101290.02;;;0.14;85.54
44453;BME280;30155;52.164;21.236;2023-01-28T01:04:57;101288.52;;;0.14;85.34
44453;BME280;30155;52.164;21.236;2023-01-28T01:09:50;101288.70;;;0.14;85.54
44453;BME280;30155;52.164;21.236;2023-01-28T01:14:42;101288.94;;;0.15;85.57
44453;BME280;30155;52.164;21.236;2023-01-28T01:19:36;101289.30;;;0.16;85.46
44453;BME280;30155;52.164;21.236;2023-01-28T01:24:29;101285.70;;;0.18;85.64
44453;BME280;30155;52.164;21.236;2023-01-28T01:29:24;101289.02;;;0.18;85.34
44453;BME280;30155;52.164;21.236;2023-01-28T01:34:17;101285.00;;;0.20;85.67
44453;BME280;30155;52.164;21.236;2023-01-28T01:39:12;101285.18;;;0.23;85.57
44453;BME280;30155;52.164;21.236;2023-01-28T01:44:06;101282.42;;;0.25;85.77
44453;BME280;30155;52.164;21.236;2023-01-28T01:49:22;101280.95;;;0.26;85.61
44453;BME280;30155;52.164;21.236;2023-01-28T01:54:17;101282.95;;;0.25;85.43
44453;BME280;30155;52.164;21.236;2023-01-28T01:59:19;101288.98;;;0.23;85.54
44453;BME280;30155;52.164;21.236;2023-01-28T02:04:30;101285.20;;;0.25;85.82
44453;BME280;30155;52.164;21.236;2023-01-28T02:09:29;101286.50;;;0.27;85.82
44453;BME280;30155;52.164;21.236;2023-01-28T02:14:25;101282.82;;;0.28;85.75
44453;BME280;30155;52.164;21.236;2023-01-28T02:19:24;101285.20;;;0.28;85.80
44453;BME280;30155;52.164;21.236;2023-01-28T02:29:46;101286.38;;;0.25;85.64
44453;BME280;30155;52.164;21.236;2023-01-28T02:34:55;101286.06;;;0.23;85.69
44453;BME280;30155;52.164;21.236;2023-01-28T02:40:17;101284.69;;;0.23;85.85
44453;BME280;30155;52.164;21.236;2023-01-28T02:45:26;101288.23;;;0.25;85.91
44453;BME280;30155;52.164;21.236;2023-01-28T02:51:07;101288.80;;;0.26;85.97
44453;BME280;30155;52.164;21.236;2023-01-28T02:56:12;101293.60;;;0.26;86.25
44453;BME280;30155;52.164;21.236;2023-01-28T03:06:22;101293.63;;;0.29;86.39
44453;BME280;30155;52.164;21.236;2023-01-28T03:11:16;101289.98;;;0.31;86.36
44453;BME280;30155;52.164;21.236;2023-01-28T03:16:28;101286.66;;;0.32;86.65
44453;BME280;30155;52.164;21.236;2023-01-28T03:21:42;101292.08;;;0.31;86.56
44453;BME280;30155;52.164;21.236;2023-01-28T03:27:11;101291.73;;;0.31;86.58
44453;BME280;30155;52.164;21.236;2023-01-28T03:32:28;101290.02;;;0.31;86.45
44453;BME280;30155;52.164;21.236;2023-01-28T03:37:41;101289.45;;;0.30;86.57
44453;BME280;30155;52.164;21.236;2023-01-28T03:42:47;101288.98;;;0.31;86.68
44453;BME280;30155;52.164;21.236;2023-01-28T03:47:52;101290.19;;;0.31;86.86
44453;BME280;30155;52.164;21.236;2023-01-28T03:52:47;101286.45;;;0.31;86.59
44453;BME280;30155;52.164;21.236;2023-01-28T03:57:47;101286.30;;;0.31;86.80
44453;BME280;30155;52.164;21.236;2023-01-28T04:02:41;101285.44;;;0.31;86.69
44453;BME280;30155;52.164;21.236;2023-01-28T04:07:37;101282.42;;;0.32;86.81
44453;BME280;30155;52.164;21.236;2023-01-28T04:12:51;101283.61;;;0.32;86.69
44453;BME280;30155;52.164;21.236;2023-01-28T04:17:47;101282.00;;;0.31;86.72
44453;BME280;30155;52.164;21.236;2023-01-28T04:22:48;101286.12;;;0.31;86.73
44453;BME280;30155;52.164;21.236;2023-01-28T04:27:42;101286.18;;;0.32;86.78
44453;BME280;30155;52.164;21.236;2023-01-28T04:32:41;101290.25;;;0.32;86.77
44453;BME280;30155;52.164;21.236;2023-01-28T04:38:00;101289.16;;;0.31;87.01
44453;BME280;30155;52.164;21.236;2023-01-28T04:42:57;101290.31;;;0.31;86.81
44453;BME280;30155;52.164;21.236;2023-01-28T04:48:14;101289.98;;;0.31;86.70
44453;BME280;30155;52.164;21.236;2023-01-28T04:53:28;101293.48;;;0.29;86.58
44453;BME280;30155;52.164;21.236;2023-01-28T04:58:22;101289.89;;;0.29;86.90
44453;BME280;30155;52.164;21.236;2023-01-28T05:03:18;101288.57;;;0.30;87.03
44453;BME280;30155;52.164;21.236;2023-01-28T05:08:11;101296.10;;;0.28;86.87
44453;BME280;30155;52.164;21.236;2023-01-28T05:13:07;101297.36;;;0.27;86.60
44453;BME280;30155;52.164;21.236;2023-01-28T05:18:01;101300.73;;;0.26;86.78
44453;BME280;30155;52.164;21.236;2023-01-28T05:22:59;101300.70;;;0.25;86.86
44453;BME280;30155;52.164;21.236;2023-01-28T05:28:04;101306.61;;;0.25;86.89
44453;BME280;30155;52.164;21.236;2023-01-28T05:32:56;101306.49;;;0.25;86.95
44453;BME280;30155;52.164;21.236;2023-01-28T05:37:50;101305.45;;;0.25;86.85
44453;BME280;30155;52.164;21.236;2023-01-28T05:42:43;101310.91;;;0.25;86.67
44453;BME280;30155;52.164;21.236;2023-01-28T05:47:51;101308.48;;;0.24;86.87
44453;BME280;30155;52.164;21.236;2023-01-28T05:52:59;101311.20;;;0.24;86.87
44453;BME280;30155;52.164;21.236;2023-01-28T05:57:56;101313.23;;;0.24;87.07
44453;BME280;30155;52.164;21.236;2023-01-28T06:02:51;101317.27;;;0.23;86.93
44453;BME280;30155;52.164;21.236;2023-01-28T06:07:45;101317.54;;;0.22;86.86
44453;BME280;30155;52.164;21.236;2023-01-28T06:12:39;101322.17;;;0.23;86.93
44453;BME280;30155;52.164;21.236;2023-01-28T06:17:52;101328.37;;;0.23;86.91
44453;BME280;30155;52.164;21.236;2023-01-28T06:22:51;101333.13;;;0.23;86.92
44453;BME280;30155;52.164;21.236;2023-01-28T06:27:44;101332.52;;;0.24;86.90
44453;BME280;30155;52.164;21.236;2023-01-28T06:32:37;101335.64;;;0.25;86.99
44453;BME280;30155;52.164;21.236;2023-01-28T06:37:31;101340.85;;;0.27;86.90
44453;BME280;30155;52.164;21.236;2023-01-28T06:42:24;101346.25;;;0.28;87.17
44453;BME280;30155;52.164;21.236;2023-01-28T06:47:18;101345.95;;;0.29;86.85
44453;BME280;30155;52.164;21.236;2023-01-28T06:52:11;101352.59;;;0.28;86.82
44453;BME280;30155;52.164;21.236;2023-01-28T06:57:04;101356.20;;;0.29;86.99
44453;BME280;30155;52.164;21.236;2023-01-28T07:01:57;101352.52;;;0.30;87.06
44453;BME280;30155;52.164;21.236;2023-01-28T07:06:49;101360.11;;;0.31;87.21
44453;BME280;30155;52.164;21.236;2023-01-28T07:11:42;101364.13;;;0.32;87.31
44453;BME280;30155;52.164;21.236;2023-01-28T07:16:35;101368.25;;;0.35;87.21
44453;BME280;30155;52.164;21.236;2023-01-28T07:21:28;101369.84;;;0.36;87.14
44453;BME280;30155;52.164;21.236;2023-01-28T07:26:21;101364.86;;;0.38;87.13
44453;BME280;30155;52.164;21.236;2023-01-28T07:31:14;101366.38;;;0.41;87.14
44453;BME280;30155;52.164;21.236;2023-01-28T07:36:08;101368.52;;;0.42;87.22
44453;BME280;30155;52.164;21.236;2023-01-28T07:41:01;101366.71;;;0.44;87.07
44453;BME280;30155;52.164;21.236;2023-01-28T07:45:53;101380.16;;;0.46;87.06
44453;BME280;30155;52.164;21.236;2023-01-28T07:50:46;101377.52;;;0.46;87.37
44453;BME280;30155;52.164;21.236;2023-01-28T07:55:42;101379.55;;;0.49;86.93
44453;BME280;30155;52.164;21.236;2023-01-28T08:00:36;101377.98;;;0.48;87.34
44453;BME280;30155;52.164;21.236;2023-01-28T08:05:41;101379.27;;;0.50;87.10
44453;BME280;30155;52.164;21.236;2023-01-28T08:10:36;101375.27;;;0.51;87.01
44453;BME280;30155;52.164;21.236;2023-01-28T08:15:29;101375.36;;;0.53;87.04
44453;BME280;30155;52.164;21.236;2023-01-28T08:20:27;101383.02;;;0.55;87.14
44453;BME280;30155;52.164;21.236;2023-01-28T08:25:20;101379.84;;;0.56;86.96
44453;BME280;30155;52.164;21.236;2023-01-28T08:30:13;101378.78;;;0.58;87.05
44453;BME280;30155;52.164;21.236;2023-01-28T08:35:07;101380.53;;;0.59;87.19
44453;BME280;30155;52.164;21.236;2023-01-28T08:40:00;101379.02;;;0.59;86.97
44453;BME280;30155;52.164;21.236;2023-01-28T08:44:53;101378.33;;;0.58;87.05
44453;BME280;30155;52.164;21.236;2023-01-28T08:49:46;101378.20;;;0.59;87.01
44453;BME280;30155;52.164;21.236;2023-01-28T08:54:38;101380.27;;;0.60;87.11
44453;BME280;30155;52.164;21.236;2023-01-28T08:59:32;101380.77;;;0.62;87.06
44453;BME280;30155;52.164;21.236;2023-01-28T09:04:25;101379.66;;;0.63;87.24
44453;BME280;30155;52.164;21.236;2023-01-28T09:09:18;101387.10;;;0.64;87.11
44453;BME280;30155;52.164;21.236;2023-01-28T09:14:11;101386.93;;;0.67;86.94
44453;BME280;30155;52.164;21.236;2023-01-28T09:19:04;101391.48;;;0.71;87.06
44453;BME280;30155;52.164;21.236;2023-01-28T09:23:57;101399.79;;;0.75;86.99
44453;BME280;30155;52.164;21.236;2023-01-28T09:28:50;101405.09;;;0.75;86.93
44453;BME280;30155;52.164;21.236;2023-01-28T09:33:43;101409.02;;;0.76;86.97
44453;BME280;30155;52.164;21.236;2023-01-28T09:38:36;101413.52;;;0.77;86.94
44453;BME280;30155;52.164;21.236;2023-01-28T09:48:35;101410.11;;;0.82;86.88
44453;BME280;30155;52.164;21.236;2023-01-28T09:53:32;101405.56;;;0.83;86.76
44453;BME280;30155;52.164;21.236;2023-01-28T09:58:25;101405.11;;;0.81;86.85
44453;BME280;30155;52.164;21.236;2023-01-28T10:03:49;101403.14;;;0.82;87.26
44453;BME280;30155;52.164;21.236;2023-01-28T10:09:18;101397.45;;;0.82;87.13
44453;BME280;30155;52.164;21.236;2023-01-28T10:14:26;101388.63;;;0.80;87.36
44453;BME280;30155;52.164;21.236;2023-01-28T10:19:26;101385.95;;;0.78;87.05
44453;BME280;30155;52.164;21.236;2023-01-28T10:24:27;101384.08;;;0.78;87.15
44453;BME280;30155;52.164;21.236;2023-01-28T10:29:25;101381.70;;;0.81;87.33
44453;BME280;30155;52.164;21.236;2023-01-28T10:34:20;101384.45;;;0.84;87.05
44453;BME280;30155;52.164;21.236;2023-01-28T10:39:15;101380.54;;;0.87;87.03
44453;BME280;30155;52.164;21.236;2023-01-28T10:44:36;101387.48;;;0.91;86.89
44453;BME280;30155;52.164;21.236;2023-01-28T10:49:35;101379.59;;;0.93;87.06
44453;BME280;30155;52.164;21.236;2023-01-28T10:54:31;101380.77;;;0.95;87.06
44453;BME280;30155;52.164;21.236;2023-01-28T10:59:30;101371.96;;;0.96;86.88
44453;BME280;30155;52.164;21.236;2023-01-28T11:09:23;101370.59;;;1.01;86.74
44453;BME280;30155;52.164;21.236;2023-01-28T11:14:22;101368.34;;;1.03;86.48
44453;BME280;30155;52.164;21.236;2023-01-28T11:19:18;101357.80;;;1.07;86.52
44453;BME280;30155;52.164;21.236;2023-01-28T11:24:14;101355.03;;;1.08;86.79
44453;BME280;30155;52.164;21.236;2023-01-28T11:29:30;101351.71;;;1.05;86.64
44453;BME280;30155;52.164;21.236;2023-01-28T11:34:27;101353.13;;;1.03;86.79
44453;BME280;30155;52.164;21.236;2023-01-28T11:39:22;101355.98;;;1.03;86.52
44453;BME280;30155;52.164;21.236;2023-01-28T11:44:23;101351.81;;;0.96;86.57
44453;BME280;30155;52.164;21.236;2023-01-28T11:49:47;101348.61;;;0.91;86.58
44453;BME280;30155;52.164;21.236;2023-01-28T11:55:15;101346.33;;;0.88;86.82
44453;BME280;30155;52.164;21.236;2023-01-28T12:00:33;101344.48;;;0.84;86.76
44453;BME280;30155;52.164;21.236;2023-01-28T12:05:36;101347.50;;;0.83;87.01
44453;BME280;30155;52.164;21.236;2023-01-28T12:26:02;101336.94;;;0.70;86.91
44453;BME280;30155;52.164;21.236;2023-01-28T12:41:21;101335.67;;;0.66;87.06
44453;BME280;30155;52.164;21.236;2023-01-28T12:46:25;101335.02;;;0.66;86.95
44453;BME280;30155;52.164;21.236;2023-01-28T12:51:26;101332.80;;;0.67;86.95
44453;BME280;30155;52.164;21.236;2023-01-28T12:56:41;101336.75;;;0.67;87.02
44453;BME280;30155;52.164;21.236;2023-01-28T13:01:41;101339.38;;;0.68;87.21
44453;BME280;30155;52.164;21.236;2023-01-28T13:06:43;101343.54;;;0.66;86.90
44453;BME280;30155;52.164;21.236;2023-01-28T13:11:38;101346.04;;;0.66;87.24
44453;BME280;30155;52.164;21.236;2023-01-28T13:16:32;101340.42;;;0.66;87.08
44453;BME280;30155;52.164;21.236;2023-01-28T13:21:33;101339.02;;;0.68;87.25
44453;BME280;30155;52.164;21.236;2023-01-28T13:26:57;101336.45;;;0.67;86.97
44453;BME280;30155;52.164;21.236;2023-01-28T13:31:53;101339.81;;;0.69;87.16
44453;BME280;30155;52.164;21.236;2023-01-28T13:36:47;101345.13;;;0.67;87.06
44453;BME280;30155;52.164;21.236;2023-01-28T13:41:43;101344.77;;;0.67;87.21
44453;BME280;30155;52.164;21.236;2023-01-28T13:46:37;101346.34;;;0.65;86.96
44453;BME280;30155;52.164;21.236;2023-01-28T13:51:34;101348.39;;;0.63;87.16
44453;BME280;30155;52.164;21.236;2023-01-28T13:56:47;101348.37;;;0.62;87.05
44453;BME280;30155;52.164;21.236;2023-01-28T14:02:30;101349.59;;;0.60;87.32
44453;BME280;30155;52.164;21.236;2023-01-28T14:17:52;101345.42;;;0.54;87.30
44453;BME280;30155;52.164;21.236;2023-01-28T14:22:47;101345.41;;;0.51;87.07
44453;BME280;30155;52.164;21.236;2023-01-28T14:27:44;101347.14;;;0.51;87.46
44453;BME280;30155;52.164;21.236;2023-01-28T14:32:45;101344.20;;;0.51;87.55
44453;BME280;30155;52.164;21.236;2023-01-28T14:37:40;101347.08;;;0.51;87.34
44453;BME280;30155;52.164;21.236;2023-01-28T14:42:38;101344.48;;;0.50;87.46
44453;BME280;30155;52.164;21.236;2023-01-28T14:47:42;101348.35;;;0.47;87.45
44453;BME280;30155;52.164;21.236;2023-01-28T14:53:09;101353.64;;;0.44;87.16
44453;BME280;30155;52.164;21.236;2023-01-28T14:58:08;101356.84;;;0.41;87.27
44453;BME280;30155;52.164;21.236;2023-01-28T15:03:18;101354.21;;;0.37;87.35
44453;BME280;30155;52.164;21.236;2023-01-28T15:08:22;101353.61;;;0.36;87.52
44453;BME280;30155;52.164;21.236;2023-01-28T15:13:24;101350.59;;;0.34;87.40
44453;BME280;30155;52.164;21.236;2023-01-28T15:18:20;101357.95;;;0.32;87.51
44453;BME280;30155;52.164;21.236;2023-01-28T15:23:55;101359.39;;;0.31;87.39
44453;BME280;30155;52.164;21.236;2023-01-28T15:28:39;101360.42;;;0.28;87.47
44453;BME280;30155;52.164;21.236;2023-01-28T15:33:34;101369.41;;;0.27;87.45
44453;BME280;30155;52.164;21.236;2023-01-28T15:38:28;101371.37;;;0.26;87.46
44453;BME280;30155;52.164;21.236;2023-01-28T15:43:25;101372.98;;;0.27;87.80
44453;BME280;30155;52.164;21.236;2023-01-28T15:48:21;101374.80;;;0.29;87.61
44453;BME280;30155;52.164;21.236;2023-01-28T15:53:15;101377.63;;;0.28;87.44
44453;BME280;30155;52.164;21.236;2023-01-28T15:58:28;101383.22;;;0.27;87.34
44453;BME280;30155;52.164;21.236;2023-01-28T16:03:21;101381.29;;;0.27;86.95
44453;BME280;30155;52.164;21.236;2023-01-28T16:08:27;101377.27;;;0.28;87.04
44453;BME280;30155;52.164;21.236;2023-01-28T16:13:41;101380.83;;;0.27;86.93
44453;BME280;30155;52.164;21.236;2023-01-28T16:18:45;101385.96;;;0.25;86.98
44453;BME280;30155;52.164;21.236;2023-01-28T16:23:50;101392.36;;;0.24;87.02
44453;BME280;30155;52.164;21.236;2023-01-28T16:28:44;101391.16;;;0.22;86.59
44453;BME280;30155;52.164;21.236;2023-01-28T16:33:38;101391.45;;;0.21;86.71
44453;BME280;30155;52.164;21.236;2023-01-28T16:38:31;101391.44;;;0.21;86.77
44453;BME280;30155;52.164;21.236;2023-01-28T16:43:24;101389.95;;;0.19;86.49
44453;BME280;30155;52.164;21.236;2023-01-28T16:48:17;101390.02;;;0.17;86.57
44453;BME280;30155;52.164;21.236;2023-01-28T16:53:27;101395.88;;;0.18;86.39
44453;BME280;30155;52.164;21.236;2023-01-28T16:58:25;101396.80;;;0.19;86.63
44453;BME280;30155;52.164;21.236;2023-01-28T17:03:18;101396.19;;;0.18;86.54
44453;BME280;30155;52.164;21.236;2023-01-28T17:08:11;101399.10;;;0.18;86.43
44453;BME280;30155;52.164;21.236;2023-01-28T17:13:05;101397.75;;;0.18;86.58
44453;BME280;30155;52.164;21.236;2023-01-28T17:18:01;101394.31;;;0.20;86.76
44453;BME280;30155;52.164;21.236;2023-01-28T17:22:54;101400.15;;;0.21;86.40
44453;BME280;30155;52.164;21.236;2023-01-28T17:27:50;101397.69;;;0.20;86.48
44453;BME280;30155;52.164;21.236;2023-01-28T17:32:44;101401.13;;;0.18;86.43
44453;BME280;30155;52.164;21.236;2023-01-28T17:37:37;101402.88;;;0.16;86.23
44453;BME280;30155;52.164;21.236;2023-01-28T17:42:30;101405.89;;;0.15;86.22
44453;BME280;30155;52.164;21.236;2023-01-28T17:47:23;101409.04;;;0.14;86.41
44453;BME280;30155;52.164;21.236;2023-01-28T17:52:16;101407.98;;;0.13;85.92
44453;BME280;30155;52.164;21.236;2023-01-28T17:57:09;101410.02;;;0.11;85.71
44453;BME280;30155;52.164;21.236;2023-01-28T18:02:01;101408.73;;;0.09;85.43
44453;BME280;30155;52.164;21.236;2023-01-28T18:06:56;101415.33;;;0.09;85.27
44453;BME280;30155;52.164;21.236;2023-01-28T18:11:49;101422.17;;;0.07;84.45
44453;BME280;30155;52.164;21.236;2023-01-28T18:16:41;101418.91;;;0.04;84.41
44453;BME280;30155;52.164;21.236;2023-01-28T18:21:37;101417.30;;;0.03;84.18
44453;BME280;30155;52.164;21.236;2023-01-28T18:26:47;101426.40;;;0.04;84.53
44453;BME280;30155;52.164;21.236;2023-01-28T18:31:41;101425.10;;;-0.00;84.31
44453;BME280;30155;52.164;21.236;2023-01-28T18:36:34;101433.34;;;0.01;84.43
44453;BME280;30155;52.164;21.236;2023-01-28T18:41:27;101443.58;;;0.01;84.34
44453;BME280;30155;52.164;21.236;2023-01-28T18:46:20;101446.83;;;0.01;84.37
44453;BME280;30155;52.164;21.236;2023-01-28T18:51:13;101435.89;;;0.01;84.32
44453;BME280;30155;52.164;21.236;2023-01-28T18:56:20;101440.52;;;0.01;84.64
44453;BME280;30155;52.164;21.236;2023-01-28T19:01:13;101436.70;;;0.00;84.22
44453;BME280;30155;52.164;21.236;2023-01-28T19:06:08;101433.66;;;-0.02;84.07
44453;BME280;30155;52.164;21.236;2023-01-28T19:11:01;101433.91;;;-0.01;84.61
44453;BME280;30155;52.164;21.236;2023-01-28T19:15:55;101438.84;;;-0.04;84.48
44453;BME280;30155;52.164;21.236;2023-01-28T19:20:48;101432.80;;;-0.08;84.20
44453;BME280;30155;52.164;21.236;2023-01-28T19:25:41;101434.63;;;-0.10;84.23
44453;BME280;30155;52.164;21.236;2023-01-28T19:30:35;101430.91;;;-0.12;83.91
44453;BME280;30155;52.164;21.236;2023-01-28T19:35:28;101439.94;;;-0.10;84.47
44453;BME280;30155;52.164;21.236;2023-01-28T19:40:21;101445.44;;;-0.07;84.27
44453;BME280;30155;52.164;21.236;2023-01-28T19:45:14;101442.93;;;-0.06;84.45
44453;BME280;30155;52.164;21.236;2023-01-28T19:50:08;101445.92;;;-0.07;84.04
44453;BME280;30155;52.164;21.236;2023-01-28T19:55:03;101454.71;;;-0.08;84.07
44453;BME280;30155;52.164;21.236;2023-01-28T19:59:56;101447.79;;;-0.10;84.10
44453;BME280;30155;52.164;21.236;2023-01-28T20:04:49;101445.04;;;-0.12;84.02
44453;BME280;30155;52.164;21.236;2023-01-28T20:09:51;101453.80;;;-0.16;83.93
44453;BME280;30155;52.164;21.236;2023-01-28T20:14:45;101461.58;;;-0.17;84.35
44453;BME280;30155;52.164;21.236;2023-01-28T20:19:38;101464.42;;;-0.17;84.28
44453;BME280;30155;52.164;21.236;2023-01-28T20:24:31;101455.69;;;-0.21;84.17
44453;BME280;30155;52.164;21.236;2023-01-28T20:29:24;101458.46;;;-0.22;83.93
44453;BME280;30155;52.164;21.236;2023-01-28T20:34:18;101455.70;;;-0.23;84.08
44453;BME280;30155;52.164;21.236;2023-01-28T20:39:12;101454.14;;;-0.23;84.09
44453;BME280;30155;52.164;21.236;2023-01-28T20:44:05;101459.23;;;-0.24;83.86
44453;BME280;30155;52.164;21.236;2023-01-28T20:48:59;101468.29;;;-0.23;83.85
44453;BME280;30155;52.164;21.236;2023-01-28T20:53:53;101473.05;;;-0.23;83.61
44453;BME280;30155;52.164;21.236;2023-01-28T20:58:47;101472.60;;;-0.25;83.58
44453;BME280;30155;52.164;21.236;2023-01-28T21:03:45;101477.35;;;-0.27;82.97
44453;BME280;30155;52.164;21.236;2023-01-28T21:08:38;101490.95;;;-0.32;82.06
44453;BME280;30155;52.164;21.236;2023-01-28T21:13:32;101491.95;;;-0.35;81.54
44453;BME280;30155;52.164;21.236;2023-01-28T21:18:25;101497.27;;;-0.37;81.50
44453;BME280;30155;52.164;21.236;2023-01-28T21:23:18;101490.39;;;-0.38;81.27
44453;BME280;30155;52.164;21.236;2023-01-28T21:28:14;101489.02;;;-0.38;81.29
44453;BME280;30155;52.164;21.236;2023-01-28T21:33:08;101484.29;;;-0.40;80.92
44453;BME280;30155;52.164;21.236;2023-01-28T21:38:01;101484.44;;;-0.40;80.82
44453;BME280;30155;52.164;21.236;2023-01-28T21:42:54;101473.88;;;-0.41;81.04
44453;BME280;30155;52.164;21.236;2023-01-28T21:47:47;101466.90;;;-0.40;80.88
44453;BME280;30155;52.164;21.236;2023-01-28T21:52:40;101469.14;;;-0.42;80.63
44453;BME280;30155;52.164;21.236;2023-01-28T21:57:33;101468.10;;;-0.45;80.59
44453;BME280;30155;52.164;21.236;2023-01-28T22:02:26;101459.58;;;-0.47;80.46
44453;BME280;30155;52.164;21.236;2023-01-28T22:07:19;101455.77;;;-0.48;80.13
44453;BME280;30155;52.164;21.236;2023-01-28T22:12:13;101462.77;;;-0.52;79.89
44453;BME280;30155;52.164;21.236;2023-01-28T22:17:07;101450.56;;;-0.56;79.81
44453;BME280;30155;52.164;21.236;2023-01-28T22:22:02;101438.86;;;-0.55;79.82
44453;BME280;30155;52.164;21.236;2023-01-28T22:26:56;101427.06;;;-0.59;79.16
44453;BME280;30155;52.164;21.236;2023-01-28T22:31:51;101421.21;;;-0.59;79.49
44453;BME280;30155;52.164;21.236;2023-01-28T22:36:45;101417.41;;;-0.58;79.32
44453;BME280;30155;52.164;21.236;2023-01-28T22:41:39;101426.48;;;-0.59;78.98
44453;BME280;30155;52.164;21.236;2023-01-28T22:46:33;101423.22;;;-0.60;79.17
44453;BME280;30155;52.164;21.236;2023-01-28T22:51:31;101434.70;;;-0.59;79.26
44453;BME280;30155;52.164;21.236;2023-01-28T22:56:26;101439.11;;;-0.59;79.19
44453;BME280;30155;52.164;21.236;2023-01-28T23:01:19;101445.58;;;-0.59;79.23
44453;BME280;30155;52.164;21.236;2023-01-28T23:06:14;101449.93;;;-0.62;78.80
44453;BME280;30155;52.164;21.236;2023-01-28T23:11:08;101454.19;;;-0.65;78.50
44453;BME280;30155;52.164;21.236;2023-01-28T23:16:07;101464.12;;;-0.66;78.39
44453;BME280;30155;52.164;21.236;2023-01-28T23:26:28;101467.14;;;-0.74;77.94
44453;BME280;30155;52.164;21.236;2023-01-28T23:31:21;101464.73;;;-0.74;78.16
44453;BME280;30155;52.164;21.236;2023-01-28T23:36:14;101462.93;;;-0.73;78.17
44453;BME280;30155;52.164;21.236;2023-01-28T23:41:07;101459.31;;;-0.76;77.70
44453;BME280;30155;52.164;21.236;2023-01-28T23:46:00;101456.49;;;-0.80;77.63
44453;BME280;30155;52.164;21.236;2023-01-28T23:50:54;101454.68;;;-0.84;77.50
44453;BME280;30155;52.164;21.236;2023-01-28T23:55:47;101450.69;;;-0.87;77.29
